createdAt,value
2023-07-29T00:00:24.508Z,18.27
2023-07-29T00:03:16.560Z,18.21
2023-07-29T00:05:54.989Z,18.19
2023-07-29T00:08:26.942Z,18.16
2023-07-29T00:11:01.809Z,18.04
2023-07-29T00:13:36.332Z,17.97
2023-07-29T00:16:11.271Z,17.89
2023-07-29T00:18:45.609Z,17.96
2023-07-29T00:21:21.206Z,17.95
2023-07-29T00:23:53.069Z,17.95
2023-07-29T00:26:30.881Z,17.88
2023-07-29T00:29:02.983Z,17.89
2023-07-29T00:31:35.194Z,17.80
2023-07-29T00:34:07.106Z,17.83
2023-07-29T00:36:39.423Z,17.77
2023-07-29T00:39:11.588Z,17.75
2023-07-29T00:41:46.552Z,17.71
2023-07-29T00:44:18.370Z,17.65
2023-07-29T00:46:51.712Z,17.58
2023-07-29T00:49:24.045Z,17.60
2023-07-29T00:51:56.292Z,17.44
2023-07-29T00:54:28.250Z,17.48
2023-07-29T00:57:03.092Z,17.52
2023-07-29T00:59:36.288Z,17.49
2023-07-29T01:02:10.736Z,17.48
2023-07-29T01:04:42.650Z,17.48
2023-07-29T01:07:26.910Z,17.53
2023-07-29T01:10:04.901Z,17.60
2023-07-29T01:12:51.651Z,17.57
2023-07-29T01:15:29.194Z,17.39
2023-07-29T01:18:15.511Z,17.45
2023-07-29T01:20:51.508Z,17.41
2023-07-29T01:23:34.170Z,17.43
2023-07-29T01:26:07.275Z,17.41
2023-07-29T01:28:39.842Z,17.42
2023-07-29T01:31:21.030Z,17.36
2023-07-29T01:34:02.268Z,17.33
2023-07-29T01:36:40.153Z,17.33
2023-07-29T01:39:16.690Z,17.32
2023-07-29T01:41:50.049Z,17.30
2023-07-29T01:44:23.728Z,17.32
2023-07-29T01:46:56.237Z,17.31
2023-07-29T01:49:28.878Z,17.29
2023-07-29T01:52:01.209Z,17.28
2023-07-29T01:54:36.411Z,17.32
2023-07-29T01:57:08.838Z,17.28
2023-07-29T01:59:42.002Z,17.24
2023-07-29T02:02:14.301Z,17.22
2023-07-29T02:04:46.857Z,17.20
2023-07-29T02:07:19.066Z,17.19
2023-07-29T02:09:55.588Z,17.13
2023-07-29T02:12:28.052Z,17.15
2023-07-29T02:15:00.594Z,17.17
2023-07-29T02:17:32.899Z,17.17
2023-07-29T02:20:08.896Z,17.10
2023-07-29T02:22:41.291Z,17.13
2023-07-29T02:25:17.635Z,17.14
2023-07-29T02:27:49.907Z,17.23
2023-07-29T02:30:22.696Z,17.22
2023-07-29T02:32:55.013Z,17.13
2023-07-29T02:35:27.622Z,17.16
2023-07-29T02:37:59.849Z,17.13
2023-07-29T02:40:39.598Z,17.08
2023-07-29T02:43:11.896Z,17.11
2023-07-29T02:45:45.470Z,17.07
2023-07-29T02:48:24.151Z,17.07
2023-07-29T02:51:00.348Z,16.83
2023-07-29T02:53:32.630Z,16.79
2023-07-29T02:56:14.168Z,16.96
2023-07-29T02:58:48.668Z,16.96
2023-07-29T03:01:23.277Z,17.02
2023-07-29T03:04:01.533Z,16.96
2023-07-29T03:06:34.312Z,16.97
2023-07-29T03:09:06.731Z,17.02
2023-07-29T03:11:41.856Z,17.03
2023-07-29T03:14:14.290Z,17.03
2023-07-29T03:16:46.764Z,16.99
2023-07-29T03:19:19.968Z,17.02
2023-07-29T03:21:52.448Z,16.94
2023-07-29T03:24:24.687Z,17.01
2023-07-29T03:27:02.066Z,17.08
2023-07-29T03:29:37.176Z,17.01
2023-07-29T03:32:10.225Z,17.02
2023-07-29T03:34:42.671Z,17.03
2023-07-29T03:37:15.308Z,17.09
2023-07-29T03:39:47.529Z,17.07
2023-07-29T03:42:22.630Z,17.11
2023-07-29T03:44:54.825Z,17.09
2023-07-29T03:47:27.340Z,17.11
2023-07-29T03:49:59.624Z,17.09
2023-07-29T03:52:35.046Z,17.07
2023-07-29T03:55:07.828Z,17.13
2023-07-29T03:57:42.971Z,17.10
2023-07-29T04:00:15.729Z,17.16
2023-07-29T04:02:48.281Z,17.16
2023-07-29T04:05:20.729Z,17.21
2023-07-29T04:07:54.588Z,17.18
2023-07-29T04:10:26.846Z,17.25
2023-07-29T04:13:02.053Z,17.28
2023-07-29T04:15:49.884Z,17.24
2023-07-29T04:18:22.571Z,17.37
2023-07-29T04:20:54.757Z,17.43
2023-07-29T04:23:30.342Z,17.47
2023-07-29T04:26:18.726Z,17.58
2023-07-29T04:29:06.168Z,17.54
2023-07-29T04:31:38.594Z,17.64
2023-07-29T04:34:11.229Z,17.83
2023-07-29T04:36:43.458Z,17.99
2023-07-29T04:39:16.093Z,18.01
2023-07-29T04:41:48.357Z,18.04
2023-07-29T04:44:23.531Z,18.17
2023-07-29T04:46:55.744Z,18.12
2023-07-29T04:49:28.268Z,18.00
2023-07-29T04:52:00.605Z,17.96
2023-07-29T04:54:33.053Z,18.17
2023-07-29T04:57:05.409Z,18.33
2023-07-29T04:59:40.569Z,18.51
2023-07-29T05:02:15.110Z,18.57
2023-07-29T05:04:52.550Z,18.73
2023-07-29T05:07:24.750Z,18.93
2023-07-29T05:09:57.225Z,18.78
2023-07-29T05:12:33.507Z,18.70
2023-07-29T05:15:13.489Z,18.60
2023-07-29T05:17:45.783Z,18.55
2023-07-29T05:20:21.684Z,18.63
2023-07-29T05:22:55.167Z,18.80
2023-07-29T05:25:27.665Z,18.78
2023-07-29T05:27:59.984Z,18.99
2023-07-29T05:30:45.109Z,19.37
2023-07-29T05:33:21.017Z,19.52
2023-07-29T05:35:56.470Z,19.66
2023-07-29T05:38:28.838Z,19.77
2023-07-29T05:41:02.405Z,19.64
2023-07-29T05:43:34.615Z,19.51
2023-07-29T05:46:09.809Z,19.43
2023-07-29T05:48:42.194Z,19.72
2023-07-29T05:51:14.755Z,21.01
2023-07-29T05:53:47.004Z,21.61
2023-07-29T05:56:19.570Z,22.65
2023-07-29T05:58:51.894Z,22.82
2023-07-29T06:01:27.863Z,24.01
2023-07-29T06:04:00.257Z,24.20
2023-07-29T06:06:35.160Z,24.45
2023-07-29T06:09:09.513Z,25.00
2023-07-29T06:11:42.088Z,24.64
2023-07-29T06:14:14.407Z,24.16
2023-07-29T06:16:49.625Z,24.24
2023-07-29T06:19:22.925Z,24.89
2023-07-29T06:22:00.148Z,24.82
2023-07-29T06:24:32.486Z,25.33
2023-07-29T06:27:05.159Z,25.88
2023-07-29T06:29:37.490Z,25.90
2023-07-29T06:32:15.002Z,25.56
2023-07-29T06:35:01.994Z,25.52
2023-07-29T06:37:34.829Z,24.92
2023-07-29T06:40:11.323Z,24.76
2023-07-29T06:42:43.889Z,24.84
2023-07-29T06:45:17.070Z,24.84
2023-07-29T06:47:55.772Z,25.23
2023-07-29T06:50:42.346Z,25.34
2023-07-29T06:53:19.028Z,25.21
2023-07-29T06:55:51.387Z,25.09
2023-07-29T06:58:24.089Z,25.15
2023-07-29T07:00:57.723Z,24.79
2023-07-29T07:03:33.312Z,24.48
2023-07-29T07:06:07.110Z,24.11
2023-07-29T07:08:39.689Z,24.04
2023-07-29T07:11:12.189Z,24.02
2023-07-29T07:13:44.786Z,24.28
2023-07-29T07:16:17.057Z,23.94
2023-07-29T07:18:52.166Z,23.10
2023-07-29T07:21:26.822Z,22.77
2023-07-29T07:23:59.426Z,23.07
2023-07-29T07:26:31.772Z,23.23
2023-07-29T07:29:04.393Z,23.57
2023-07-29T07:31:39.575Z,23.59
2023-07-29T07:34:14.836Z,23.05
2023-07-29T07:36:46.728Z,22.68
2023-07-29T07:39:19.048Z,22.46
2023-07-29T07:41:51.028Z,22.64
2023-07-29T07:44:23.359Z,23.03
2023-07-29T07:46:55.295Z,22.75
2023-07-29T07:49:30.194Z,22.76
2023-07-29T07:52:02.088Z,23.11
2023-07-29T07:54:36.907Z,23.75
2023-07-29T07:57:10.108Z,24.27
2023-07-29T07:59:42.353Z,24.48
2023-07-29T08:02:16.748Z,25.02
2023-07-29T08:04:51.605Z,25.81
2023-07-29T08:07:23.547Z,25.71
2023-07-29T08:09:55.815Z,26.07
2023-07-29T08:12:27.792Z,25.56
2023-07-29T08:15:00.050Z,25.68
2023-07-29T08:17:31.983Z,26.03
2023-07-29T08:20:07.822Z,26.15
2023-07-29T08:22:39.933Z,24.97
2023-07-29T08:25:12.867Z,24.82
2023-07-29T08:30:40.671Z,25.32
2023-07-29T08:33:13.668Z,25.79
2023-07-29T08:35:52.730Z,25.88
2023-07-29T08:38:28.307Z,25.08
2023-07-29T08:41:09.196Z,24.88
2023-07-29T08:43:43.949Z,24.50
2023-07-29T08:46:17.578Z,24.42
2023-07-29T08:48:51.043Z,24.51
2023-07-29T08:51:29.532Z,24.40
2023-07-29T08:54:02.589Z,24.39
2023-07-29T08:56:35.408Z,24.51
2023-07-29T08:59:07.947Z,24.40
2023-07-29T09:01:43.237Z,24.58
2023-07-29T09:04:17.160Z,24.88
2023-07-29T09:06:54.567Z,24.88
2023-07-29T09:09:26.508Z,24.76
2023-07-29T09:11:58.839Z,24.86
2023-07-29T09:14:32.230Z,24.65
2023-07-29T09:17:04.705Z,24.78
2023-07-29T09:19:40.587Z,24.93
2023-07-29T09:35:02.725Z,25.64
2023-07-29T09:37:38.627Z,25.34
2023-07-29T09:40:17.972Z,25.73
2023-07-29T09:42:55.010Z,25.77
2023-07-29T09:45:30.229Z,25.61
2023-07-29T09:48:03.055Z,25.28
2023-07-29T09:50:55.326Z,24.97
2023-07-29T09:53:30.393Z,25.39
2023-07-29T09:56:07.317Z,25.55
2023-07-29T09:58:43.309Z,26.27
2023-07-29T10:01:18.019Z,26.37
2023-07-29T10:03:51.656Z,27.08
2023-07-29T10:06:27.553Z,27.18
2023-07-29T10:09:00.798Z,27.13
2023-07-29T10:11:34.376Z,27.28
2023-07-29T10:14:09.119Z,27.09
2023-07-29T10:16:46.736Z,26.75
2023-07-29T10:19:23.271Z,26.49
2023-07-29T10:22:00.649Z,26.72
2023-07-29T10:24:36.630Z,26.52
2023-07-29T10:27:11.308Z,26.03
2023-07-29T10:29:50.144Z,25.71
2023-07-29T10:32:27.768Z,25.68
2023-07-29T10:35:00.210Z,26.15
2023-07-29T10:37:34.927Z,26.59
2023-07-29T10:40:12.411Z,26.76
2023-07-29T10:43:05.626Z,26.64
2023-07-29T10:45:46.833Z,26.68
2023-07-29T10:48:45.224Z,26.41
2023-07-29T10:51:41.768Z,26.32
2023-07-29T10:54:18.890Z,26.32
2023-07-29T10:56:56.843Z,26.18
2023-07-29T10:59:38.011Z,25.86
2023-07-29T11:02:21.788Z,25.83
2023-07-29T11:04:55.735Z,25.19
2023-07-29T11:07:30.652Z,24.96
2023-07-29T11:10:10.409Z,24.58
2023-07-29T11:12:48.834Z,24.29
2023-07-29T11:15:23.173Z,20.77
2023-07-29T11:17:58.225Z,19.18
2023-07-29T11:20:39.236Z,19.09
2023-07-29T11:23:11.616Z,19.01
2023-07-29T11:25:49.146Z,19.08
2023-07-29T11:28:24.257Z,19.33
2023-07-29T11:30:56.616Z,19.39
2023-07-29T11:33:30.359Z,19.49
2023-07-29T11:36:02.487Z,19.60
2023-07-29T11:38:38.427Z,19.75
2023-07-29T11:41:13.047Z,19.81
2023-07-29T11:43:45.352Z,19.90
2023-07-29T11:46:17.299Z,19.93
2023-07-29T11:48:49.800Z,19.81
2023-07-29T11:51:22.025Z,19.93
2023-07-29T11:53:54.472Z,19.88
2023-07-29T11:56:33.737Z,20.08
2023-07-29T11:59:09.130Z,20.10
2023-07-29T12:01:41.130Z,20.09
2023-07-29T12:04:14.322Z,20.12
2023-07-29T12:06:46.792Z,20.28
2023-07-29T12:09:19.129Z,20.46
2023-07-29T12:11:56.417Z,20.53
2023-07-29T12:14:31.548Z,20.50
2023-07-29T12:17:05.918Z,20.45
2023-07-29T12:19:40.652Z,20.53
2023-07-29T12:22:14.266Z,20.58
2023-07-29T12:24:47.243Z,20.60
2023-07-29T12:27:22.108Z,20.69
2023-07-29T12:29:57.637Z,20.71
2023-07-29T12:32:31.180Z,20.75
2023-07-29T12:35:03.868Z,20.85
2023-07-29T12:37:40.409Z,20.84
2023-07-29T12:40:25.095Z,21.14
2023-07-29T12:43:02.316Z,21.22
2023-07-29T12:45:41.523Z,21.68
2023-07-29T12:48:18.594Z,21.97
2023-07-29T12:50:53.512Z,22.03
2023-07-29T12:53:28.252Z,22.25
2023-07-29T12:56:02.590Z,22.35
2023-07-29T12:58:37.532Z,22.38
2023-07-29T13:01:24.323Z,22.19
2023-07-29T13:04:11.074Z,21.77
2023-07-29T13:06:46.008Z,21.71
2023-07-29T13:09:18.213Z,21.84
2023-07-29T13:11:51.194Z,21.83
2023-07-29T13:14:27.691Z,22.03
2023-07-29T13:17:00.450Z,22.26
2023-07-29T13:19:34.936Z,22.32
2023-07-29T13:22:09.806Z,22.54
2023-07-29T13:24:42.427Z,22.70
2023-07-29T13:27:15.049Z,22.68
2023-07-29T13:29:50.276Z,23.05
2023-07-29T13:32:22.814Z,23.05
2023-07-29T13:34:55.175Z,23.21
2023-07-29T13:37:29.787Z,23.72
2023-07-29T13:40:05.131Z,23.64
2023-07-29T13:42:37.727Z,23.98
2023-07-29T13:45:13.828Z,23.80
2023-07-29T13:47:46.505Z,23.85
2023-07-29T13:50:22.400Z,23.95
2023-07-29T13:52:55.107Z,24.11
2023-07-29T13:55:32.185Z,24.25
2023-07-29T13:58:05.089Z,24.08
2023-07-29T14:00:47.408Z,24.08
2023-07-29T14:03:20.588Z,23.91
2023-07-29T14:05:55.486Z,23.51
2023-07-29T14:08:28.592Z,23.23
2023-07-29T14:11:00.912Z,23.61
2023-07-29T14:13:36.095Z,23.36
2023-07-29T14:16:11.303Z,23.58
2023-07-29T14:18:45.948Z,23.76
2023-07-29T14:21:20.947Z,24.00
2023-07-29T14:23:54.328Z,23.76
2023-07-29T14:26:27.344Z,23.40
2023-07-29T14:29:00.547Z,23.56
2023-07-29T14:31:38.294Z,23.35
2023-07-29T14:34:15.522Z,22.79
2023-07-29T14:36:54.787Z,22.80
2023-07-29T14:39:27.113Z,22.80
2023-07-29T14:41:59.187Z,23.17
2023-07-29T14:44:31.907Z,23.50
2023-07-29T14:47:08.518Z,23.18
2023-07-29T14:49:43.891Z,23.16
2023-07-29T14:52:16.088Z,23.14
2023-07-29T14:54:48.313Z,23.50
2023-07-29T14:57:23.517Z,23.26
2023-07-29T14:59:56.288Z,22.85
2023-07-29T15:02:31.236Z,22.92
2023-07-29T15:05:03.951Z,23.22
2023-07-29T15:07:35.928Z,23.09
2023-07-29T15:10:09.456Z,22.94
2023-07-29T15:12:41.350Z,22.46
2023-07-29T15:15:14.511Z,22.41
2023-07-29T15:17:49.296Z,22.40
2023-07-29T15:20:21.739Z,22.40
2023-07-29T15:22:53.790Z,22.39
2023-07-29T15:25:26.198Z,22.63
2023-07-29T15:27:59.636Z,22.40
2023-07-29T15:33:27.515Z,21.05
2023-07-29T15:36:02.692Z,18.99
2023-07-29T15:38:38.826Z,17.44
2023-07-29T15:41:14.713Z,17.46
2023-07-29T15:43:46.693Z,17.67
2023-07-29T15:46:19.240Z,17.35
2023-07-29T15:48:54.107Z,17.27
2023-07-29T15:51:26.875Z,17.52
2023-07-29T15:54:01.875Z,17.64
2023-07-29T15:56:38.019Z,17.60
2023-07-29T15:59:10.188Z,17.56
2023-07-29T16:01:42.562Z,17.46
2023-07-29T16:04:17.076Z,17.62
2023-07-29T16:06:49.359Z,18.01
2023-07-29T16:09:22.697Z,18.28
2023-07-29T16:11:55.079Z,18.62
2023-07-29T16:14:27.104Z,19.08
2023-07-29T16:16:59.467Z,19.47
2023-07-29T16:19:35.066Z,19.69
2023-07-29T16:22:17.057Z,19.76
2023-07-29T16:24:52.764Z,19.78
2023-07-29T16:27:25.516Z,19.72
2023-07-29T16:29:57.803Z,19.74
2023-07-29T16:32:30.616Z,19.82
2023-07-29T16:35:05.698Z,19.90
2023-07-29T16:37:40.563Z,19.95
2023-07-29T16:40:13.959Z,19.99
2023-07-29T16:42:49.757Z,20.03
2023-07-29T16:45:22.019Z,19.91
2023-07-29T16:47:57.811Z,19.89
2023-07-29T16:50:32.777Z,19.87
2023-07-29T16:53:05.362Z,19.91
2023-07-29T16:55:37.599Z,19.96
2023-07-29T16:58:10.159Z,20.03
2023-07-29T17:00:42.162Z,20.15
2023-07-29T17:03:14.966Z,20.19
2023-07-29T17:05:54.655Z,20.33
2023-07-29T17:08:26.914Z,20.30
2023-07-29T17:10:58.831Z,20.41
2023-07-29T17:13:31.155Z,20.41
2023-07-29T17:16:06.308Z,20.43
2023-07-29T17:18:40.403Z,20.54
2023-07-29T17:21:14.994Z,20.76
2023-07-29T17:23:53.684Z,20.82
2023-07-29T17:26:25.486Z,20.83
2023-07-29T17:28:57.801Z,20.95
2023-07-29T17:31:29.740Z,20.97
2023-07-29T17:34:02.276Z,20.96
2023-07-29T17:36:37.015Z,21.03
2023-07-29T17:39:09.977Z,20.97
2023-07-29T17:41:42.214Z,20.95
2023-07-29T17:44:14.578Z,20.95
2023-07-29T17:46:46.548Z,21.04
2023-07-29T17:49:18.948Z,21.00
2023-07-29T17:51:53.550Z,20.89
2023-07-29T17:54:31.474Z,20.92
2023-07-29T17:57:08.488Z,20.99
2023-07-29T17:59:40.758Z,20.92
2023-07-29T18:02:15.728Z,20.80
2023-07-29T18:04:51.065Z,20.66
2023-07-29T18:07:25.617Z,20.51
2023-07-29T18:09:57.975Z,20.56
2023-07-29T18:12:29.908Z,20.47
2023-07-29T18:15:02.284Z,20.48
2023-07-29T18:17:34.213Z,20.53
2023-07-29T18:20:07.085Z,20.44
2023-07-29T18:22:41.665Z,20.34
2023-07-29T18:25:16.622Z,20.33
2023-07-29T18:27:48.395Z,20.13
2023-07-29T18:30:20.643Z,20.14
2023-07-29T18:32:52.655Z,20.08
2023-07-29T18:35:24.984Z,19.98
2023-07-29T18:38:08.483Z,19.94
2023-07-29T18:40:41.796Z,19.94
2023-07-29T18:43:13.837Z,19.77
2023-07-29T18:45:47.720Z,19.89
2023-07-29T18:48:24.921Z,19.84
2023-07-29T18:50:57.348Z,19.75
2023-07-29T18:53:34.600Z,19.72
2023-07-29T18:56:28.137Z,19.65
2023-07-29T18:59:01.514Z,19.65
2023-07-29T19:01:36.601Z,19.66
2023-07-29T19:04:09.764Z,19.59
2023-07-29T19:06:42.221Z,19.61
2023-07-29T19:09:17.617Z,19.54
2023-07-29T19:11:49.932Z,19.47
2023-07-29T19:14:22.720Z,19.43
2023-07-29T19:16:55.021Z,19.48
2023-07-29T19:19:27.700Z,19.42
2023-07-29T19:22:01.019Z,19.44
2023-07-29T19:24:43.783Z,19.39
2023-07-29T19:27:16.696Z,19.35
2023-07-29T19:29:54.636Z,19.32
2023-07-29T19:32:28.710Z,19.31
2023-07-29T19:35:01.743Z,19.27
2023-07-29T19:37:34.481Z,19.23
2023-07-29T19:40:11.341Z,19.17
2023-07-29T19:42:49.117Z,19.16
2023-07-29T19:45:23.247Z,19.09
2023-07-29T19:47:58.060Z,19.10
2023-07-29T19:50:33.761Z,19.05
2023-07-29T19:53:08.526Z,19.03
2023-07-29T19:55:44.141Z,19.01
2023-07-29T19:58:19.494Z,19.00
2023-07-29T20:00:56.587Z,18.96
2023-07-29T20:03:28.854Z,18.85
2023-07-29T20:06:02.857Z,18.88
2023-07-29T20:08:35.030Z,18.87
2023-07-29T20:11:14.641Z,18.77
2023-07-29T20:13:49.277Z,18.77
2023-07-29T20:16:22.688Z,18.78
2023-07-29T20:18:54.823Z,18.73
2023-07-29T20:21:29.856Z,18.76
2023-07-29T20:24:06.265Z,18.77
2023-07-29T20:26:44.100Z,18.78
2023-07-29T20:29:16.177Z,18.74
2023-07-29T20:31:52.842Z,18.77
2023-07-29T20:34:25.088Z,18.76
2023-07-29T20:36:57.617Z,18.67
2023-07-29T20:39:29.717Z,18.67
2023-07-29T20:42:05.126Z,18.66
2023-07-29T20:44:37.200Z,18.65
2023-07-29T20:47:11.776Z,18.69
2023-07-29T20:49:47.703Z,18.66
2023-07-29T20:52:20.200Z,18.62
2023-07-29T20:54:52.357Z,18.59
2023-07-29T20:57:27.807Z,18.60
2023-07-29T21:00:00.921Z,18.63
2023-07-29T21:02:33.590Z,18.60
2023-07-29T21:05:06.735Z,18.65
2023-07-29T21:07:39.142Z,18.57
2023-07-29T21:10:11.455Z,18.65
2023-07-29T21:12:46.559Z,18.62
2023-07-29T21:15:19.034Z,18.64
2023-07-29T21:20:40.157Z,18.69
2023-07-29T21:23:12.642Z,18.67
2023-07-29T21:25:52.783Z,18.74
2023-07-29T21:28:30.150Z,18.78
2023-07-29T21:31:02.711Z,18.81
2023-07-29T21:33:35.300Z,18.65
2023-07-29T21:36:08.362Z,18.63
2023-07-29T21:38:42.350Z,18.61
2023-07-29T21:41:14.718Z,18.59
2023-07-29T21:43:49.942Z,18.59
2023-07-29T21:46:22.179Z,18.53
2023-07-29T21:48:54.703Z,18.59
2023-07-29T21:51:27.579Z,18.65
2023-07-29T21:54:00.051Z,18.69
2023-07-29T21:56:33.716Z,18.74
2023-07-29T21:59:09.079Z,18.80
2023-07-29T22:01:41.497Z,18.78
2023-07-29T22:04:14.027Z,18.73
2023-07-29T22:06:46.199Z,18.76
2023-07-29T22:09:19.048Z,18.73
2023-07-29T22:11:54.066Z,18.71
2023-07-29T22:14:29.888Z,18.65
2023-07-29T22:17:02.023Z,18.69
2023-07-29T22:19:34.572Z,18.71
2023-07-29T22:22:26.452Z,18.68
2023-07-29T22:24:59.048Z,18.70
2023-07-29T22:27:31.360Z,18.65
2023-07-29T22:30:13.637Z,18.62
2023-07-29T22:32:46.521Z,18.52
2023-07-29T22:35:19.584Z,18.55
2023-07-29T22:37:51.740Z,18.58
2023-07-29T22:40:24.205Z,18.55
2023-07-29T22:42:56.318Z,18.57
2023-07-29T22:45:31.458Z,18.58
2023-07-29T22:48:03.596Z,18.57
2023-07-29T22:50:36.258Z,18.56
2023-07-29T22:53:10.422Z,18.47
2023-07-29T22:55:45.538Z,18.41
2023-07-29T22:58:18.020Z,18.41
2023-07-29T23:00:55.861Z,18.37
2023-07-29T23:03:28.872Z,18.34
2023-07-29T23:06:01.491Z,18.18
2023-07-29T23:08:33.676Z,18.23
2023-07-29T23:11:06.599Z,18.24
2023-07-29T23:13:38.424Z,18.06
2023-07-29T23:16:41.723Z,18.07
2023-07-29T23:19:13.458Z,18.06
2023-07-29T23:21:45.542Z,18.04
2023-07-29T23:24:17.342Z,17.97
2023-07-29T23:26:52.131Z,18.01
2023-07-29T23:29:25.789Z,17.97
2023-07-29T23:32:03.936Z,17.95
2023-07-29T23:34:35.802Z,17.89
2023-07-29T23:37:08.884Z,17.86
2023-07-29T23:39:40.660Z,17.83
2023-07-29T23:42:12.837Z,17.76
2023-07-29T23:44:44.895Z,17.73
2023-07-29T23:47:19.667Z,17.74
2023-07-29T23:49:51.385Z,17.76
2023-07-29T23:52:24.699Z,17.76
2023-07-29T23:55:14.911Z,17.77
2023-07-29T23:57:49.724Z,17.73
